sensor_id;sensor_type;location;lat;lon;timestamp;pressure;altitude;pressure_sealevel;temperature
68510;BMP180;55512;50.102;19.958;2022-11-28T00:01:27;99481.40;;;3.62
68510;BMP180;55512;50.102;19.958;2022-11-28T00:03:53;99480.00;;;3.64
68510;BMP180;55512;50.102;19.958;2022-11-28T00:06:19;99470.40;;;3.70
68510;BMP180;55512;50.102;19.958;2022-11-28T00:08:45;99465.80;;;3.68
68510;BMP180;55512;50.102;19.958;2022-11-28T00:11:13;99459.80;;;3.70
68510;BMP180;55512;50.102;19.958;2022-11-28T00:13:40;99463.20;;;3.70
68510;BMP180;55512;50.102;19.958;2022-11-28T00:16:08;99461.00;;;3.70
68510;BMP180;55512;50.102;19.958;2022-11-28T00:18:36;99459.20;;;3.70
68510;BMP180;55512;50.102;19.958;2022-11-28T00:21:08;99461.40;;;3.70
68510;BMP180;55512;50.102;19.958;2022-11-28T00:23:35;99461.20;;;3.66
68510;BMP180;55512;50.102;19.958;2022-11-28T00:26:26;99468.20;;;3.64
68510;BMP180;55512;50.102;19.958;2022-11-28T00:28:54;99471.00;;;3.60
68510;BMP180;55512;50.102;19.958;2022-11-28T00:31:27;99472.60;;;3.60
68510;BMP180;55512;50.102;19.958;2022-11-28T00:33:54;99465.00;;;3.60
68510;BMP180;55512;50.102;19.958;2022-11-28T00:36:21;99469.80;;;3.60
68510;BMP180;55512;50.102;19.958;2022-11-28T00:38:47;99466.80;;;3.60
68510;BMP180;55512;50.102;19.958;2022-11-28T00:41:17;99467.80;;;3.60
68510;BMP180;55512;50.102;19.958;2022-11-28T00:43:45;99475.40;;;3.60
68510;BMP180;55512;50.102;19.958;2022-11-28T00:46:13;99475.80;;;3.60
68510;BMP180;55512;50.102;19.958;2022-11-28T00:48:39;99469.80;;;3.60
68510;BMP180;55512;50.102;19.958;2022-11-28T00:51:10;99465.60;;;3.60
68510;BMP180;55512;50.102;19.958;2022-11-28T00:53:37;99467.20;;;3.60
68510;BMP180;55512;50.102;19.958;2022-11-28T00:56:09;99471.20;;;3.60
68510;BMP180;55512;50.102;19.958;2022-11-28T00:58:36;99470.00;;;3.60
68510;BMP180;55512;50.102;19.958;2022-11-28T01:01:15;99466.60;;;3.60
68510;BMP180;55512;50.102;19.958;2022-11-28T01:03:42;99461.60;;;3.60
68510;BMP180;55512;50.102;19.958;2022-11-28T01:06:09;99456.40;;;3.60
68510;BMP180;55512;50.102;19.958;2022-11-28T01:08:36;99458.60;;;3.60
68510;BMP180;55512;50.102;19.958;2022-11-28T01:11:03;99460.40;;;3.60
68510;BMP180;55512;50.102;19.958;2022-11-28T01:13:34;99458.20;;;3.60
68510;BMP180;55512;50.102;19.958;2022-11-28T01:15:59;99447.00;;;3.50
68510;BMP180;55512;50.102;19.958;2022-11-28T01:18:25;99444.20;;;3.54
68510;BMP180;55512;50.102;19.958;2022-11-28T01:20:51;99444.80;;;3.58
68510;BMP180;55512;50.102;19.958;2022-11-28T01:23:16;99441.60;;;3.56
68510;BMP180;55512;50.102;19.958;2022-11-28T01:25:43;99439.40;;;3.50
68510;BMP180;55512;50.102;19.958;2022-11-28T01:28:09;99435.40;;;3.50
68510;BMP180;55512;50.102;19.958;2022-11-28T01:30:34;99432.00;;;3.50
68510;BMP180;55512;50.102;19.958;2022-11-28T01:32:59;99428.40;;;3.50
68510;BMP180;55512;50.102;19.958;2022-11-28T01:35:25;99424.40;;;3.46
68510;BMP180;55512;50.102;19.958;2022-11-28T01:37:50;99417.80;;;3.40
68510;BMP180;55512;50.102;19.958;2022-11-28T01:40:16;99413.20;;;3.40
68510;BMP180;55512;50.102;19.958;2022-11-28T01:42:41;99408.80;;;3.40
68510;BMP180;55512;50.102;19.958;2022-11-28T01:45:23;99405.40;;;3.40
68510;BMP180;55512;50.102;19.958;2022-11-28T01:47:52;99405.40;;;3.34
68510;BMP180;55512;50.102;19.958;2022-11-28T01:50:25;99400.00;;;3.30
68510;BMP180;55512;50.102;19.958;2022-11-28T01:52:56;99396.00;;;3.30
68510;BMP180;55512;50.102;19.958;2022-11-28T01:55:26;99390.60;;;3.30
68510;BMP180;55512;50.102;19.958;2022-11-28T01:57:55;99385.20;;;3.30
68510;BMP180;55512;50.102;19.958;2022-11-28T02:00:22;99385.20;;;3.30
68510;BMP180;55512;50.102;19.958;2022-11-28T02:02:57;99381.40;;;3.28
68510;BMP180;55512;50.102;19.958;2022-11-28T02:05:25;99380.00;;;3.30
68510;BMP180;55512;50.102;19.958;2022-11-28T02:07:51;99374.40;;;3.20
68510;BMP180;55512;50.102;19.958;2022-11-28T02:10:24;99368.80;;;3.20
68510;BMP180;55512;50.102;19.958;2022-11-28T02:15:47;99367.60;;;3.20
68510;BMP180;55512;50.102;19.958;2022-11-28T02:21:35;99360.60;;;3.20
68510;BMP180;55512;50.102;19.958;2022-11-28T02:36:09;99356.60;;;3.10
68510;BMP180;55512;50.102;19.958;2022-11-28T02:41:38;99350.40;;;3.10
68510;BMP180;55512;50.102;19.958;2022-11-28T02:46:55;99349.40;;;3.10
68510;BMP180;55512;50.102;19.958;2022-11-28T02:49:29;99350.40;;;3.10
68510;BMP180;55512;50.102;19.958;2022-11-28T02:52:05;99348.40;;;3.10
68510;BMP180;55512;50.102;19.958;2022-11-28T02:54:35;99345.20;;;3.10
68510;BMP180;55512;50.102;19.958;2022-11-28T02:57:01;99343.20;;;3.10
68510;BMP180;55512;50.102;19.958;2022-11-28T03:02:11;99336.60;;;3.10
68510;BMP180;55512;50.102;19.958;2022-11-28T03:17:53;99335.60;;;3.10
68510;BMP180;55512;50.102;19.958;2022-11-28T03:20:50;99325.60;;;3.10
68510;BMP180;55512;50.102;19.958;2022-11-28T03:23:24;99326.80;;;3.10
68510;BMP180;55512;50.102;19.958;2022-11-28T03:26:10;99324.00;;;3.10
68510;BMP180;55512;50.102;19.958;2022-11-28T03:29:28;99323.80;;;3.10
68510;BMP180;55512;50.102;19.958;2022-11-28T03:31:40;99316.60;;;3.10
68510;BMP180;55512;50.102;19.958;2022-11-28T03:34:11;99321.20;;;3.10
68510;BMP180;55512;50.102;19.958;2022-11-28T03:36:47;99321.60;;;3.10
68510;BMP180;55512;50.102;19.958;2022-11-28T03:39:20;99319.00;;;3.02
68510;BMP180;55512;50.102;19.958;2022-11-28T03:41:58;99318.40;;;3.00
68510;BMP180;55512;50.102;19.958;2022-11-28T03:44:30;99317.00;;;3.00
68510;BMP180;55512;50.102;19.958;2022-11-28T03:47:03;99321.20;;;3.00
68510;BMP180;55512;50.102;19.958;2022-11-28T03:49:46;99317.80;;;3.00
68510;BMP180;55512;50.102;19.958;2022-11-28T03:52:31;99316.00;;;3.00
68510;BMP180;55512;50.102;19.958;2022-11-28T03:55:10;99315.40;;;3.00
68510;BMP180;55512;50.102;19.958;2022-11-28T03:57:51;99308.80;;;3.00
68510;BMP180;55512;50.102;19.958;2022-11-28T04:00:21;99302.20;;;3.00
68510;BMP180;55512;50.102;19.958;2022-11-28T04:03:17;99306.00;;;3.00
68510;BMP180;55512;50.102;19.958;2022-11-28T04:06:01;99305.60;;;3.00
68510;BMP180;55512;50.102;19.958;2022-11-28T04:08:37;99303.60;;;3.00
68510;BMP180;55512;50.102;19.958;2022-11-28T04:11:14;99301.80;;;3.00
68510;BMP180;55512;50.102;19.958;2022-11-28T04:13:57;99300.80;;;3.00
68510;BMP180;55512;50.102;19.958;2022-11-28T04:16:48;99296.80;;;3.00
68510;BMP180;55512;50.102;19.958;2022-11-28T04:19:34;99304.00;;;3.00
68510;BMP180;55512;50.102;19.958;2022-11-28T04:22:27;99305.60;;;3.00
68510;BMP180;55512;50.102;19.958;2022-11-28T04:25:04;99305.60;;;3.00
68510;BMP180;55512;50.102;19.958;2022-11-28T04:27:40;99298.20;;;3.00
68510;BMP180;55512;50.102;19.958;2022-11-28T04:30:12;99294.80;;;3.00
68510;BMP180;55512;50.102;19.958;2022-11-28T04:32:47;99291.60;;;3.00
68510;BMP180;55512;50.102;19.958;2022-11-28T04:35:24;99295.00;;;3.00
68510;BMP180;55512;50.102;19.958;2022-11-28T04:37:52;99292.60;;;3.00
68510;BMP180;55512;50.102;19.958;2022-11-28T04:40:21;99291.00;;;3.00
68510;BMP180;55512;50.102;19.958;2022-11-28T04:42:56;99289.40;;;3.00
68510;BMP180;55512;50.102;19.958;2022-11-28T04:45:38;99290.40;;;3.00
68510;BMP180;55512;50.102;19.958;2022-11-28T04:48:08;99290.00;;;3.00
68510;BMP180;55512;50.102;19.958;2022-11-28T04:50:48;99288.20;;;3.00
68510;BMP180;55512;50.102;19.958;2022-11-28T04:53:39;99276.80;;;3.00
68510;BMP180;55512;50.102;19.958;2022-11-28T04:56:19;99277.40;;;3.00
68510;BMP180;55512;50.102;19.958;2022-11-28T04:58:47;99281.40;;;3.00
68510;BMP180;55512;50.102;19.958;2022-11-28T05:01:20;99278.40;;;3.00
68510;BMP180;55512;50.102;19.958;2022-11-28T05:03:47;99282.20;;;3.00
68510;BMP180;55512;50.102;19.958;2022-11-28T05:06:34;99282.80;;;3.00
68510;BMP180;55512;50.102;19.958;2022-11-28T05:08:59;99284.80;;;3.00
68510;BMP180;55512;50.102;19.958;2022-11-28T05:11:26;99280.60;;;3.00
68510;BMP180;55512;50.102;19.958;2022-11-28T05:13:53;99278.20;;;2.98
68510;BMP180;55512;50.102;19.958;2022-11-28T05:16:20;99273.20;;;3.00
68510;BMP180;55512;50.102;19.958;2022-11-28T05:18:45;99278.80;;;3.00
68510;BMP180;55512;50.102;19.958;2022-11-28T05:21:11;99280.80;;;3.00
68510;BMP180;55512;50.102;19.958;2022-11-28T05:23:43;99278.40;;;3.00
68510;BMP180;55512;50.102;19.958;2022-11-28T05:26:16;99284.40;;;3.00
68510;BMP180;55512;50.102;19.958;2022-11-28T05:28:48;99282.80;;;3.00
68510;BMP180;55512;50.102;19.958;2022-11-28T05:31:14;99281.40;;;3.00
68510;BMP180;55512;50.102;19.958;2022-11-28T05:33:40;99279.20;;;3.00
68510;BMP180;55512;50.102;19.958;2022-11-28T05:36:10;99283.00;;;3.00
68510;BMP180;55512;50.102;19.958;2022-11-28T05:38:37;99280.00;;;3.00
68510;BMP180;55512;50.102;19.958;2022-11-28T05:41:03;99277.60;;;2.94
68510;BMP180;55512;50.102;19.958;2022-11-28T05:43:29;99275.00;;;3.00
68510;BMP180;55512;50.102;19.958;2022-11-28T05:45:55;99276.20;;;3.00
68510;BMP180;55512;50.102;19.958;2022-11-28T05:48:22;99277.40;;;3.00
68510;BMP180;55512;50.102;19.958;2022-11-28T05:50:48;99282.60;;;3.00
68510;BMP180;55512;50.102;19.958;2022-11-28T05:53:18;99281.40;;;3.00
68510;BMP180;55512;50.102;19.958;2022-11-28T05:55:45;99285.00;;;3.00
68510;BMP180;55512;50.102;19.958;2022-11-28T05:58:10;99282.60;;;3.00
68510;BMP180;55512;50.102;19.958;2022-11-28T06:00:37;99282.00;;;2.98
68510;BMP180;55512;50.102;19.958;2022-11-28T06:03:03;99276.00;;;2.96
68510;BMP180;55512;50.102;19.958;2022-11-28T06:05:30;99278.20;;;2.90
68510;BMP180;55512;50.102;19.958;2022-11-28T06:07:55;99272.60;;;2.98
68510;BMP180;55512;50.102;19.958;2022-11-28T06:10:21;99269.40;;;2.94
68510;BMP180;55512;50.102;19.958;2022-11-28T06:12:48;99271.20;;;2.96
68510;BMP180;55512;50.102;19.958;2022-11-28T06:15:13;99273.00;;;2.96
68510;BMP180;55512;50.102;19.958;2022-11-28T06:17:39;99273.40;;;2.92
68510;BMP180;55512;50.102;19.958;2022-11-28T06:20:07;99275.60;;;2.90
68510;BMP180;55512;50.102;19.958;2022-11-28T06:22:33;99271.00;;;2.90
68510;BMP180;55512;50.102;19.958;2022-11-28T06:24:59;99276.00;;;2.90
68510;BMP180;55512;50.102;19.958;2022-11-28T06:27:24;99278.60;;;2.90
68510;BMP180;55512;50.102;19.958;2022-11-28T06:29:49;99274.80;;;2.90
68510;BMP180;55512;50.102;19.958;2022-11-28T06:32:15;99277.20;;;2.90
68510;BMP180;55512;50.102;19.958;2022-11-28T06:34:40;99275.00;;;2.90
68510;BMP180;55512;50.102;19.958;2022-11-28T06:37:06;99275.60;;;2.90
68510;BMP180;55512;50.102;19.958;2022-11-28T06:39:31;99275.00;;;2.90
68510;BMP180;55512;50.102;19.958;2022-11-28T06:41:57;99277.00;;;2.98
68510;BMP180;55512;50.102;19.958;2022-11-28T06:44:22;99279.60;;;3.00
68510;BMP180;55512;50.102;19.958;2022-11-28T06:46:48;99278.40;;;3.00
68510;BMP180;55512;50.102;19.958;2022-11-28T06:49:13;99279.40;;;3.00
68510;BMP180;55512;50.102;19.958;2022-11-28T06:51:40;99276.20;;;3.00
68510;BMP180;55512;50.102;19.958;2022-11-28T06:54:07;99278.00;;;3.00
68510;BMP180;55512;50.102;19.958;2022-11-28T06:56:32;99281.40;;;3.00
68510;BMP180;55512;50.102;19.958;2022-11-28T06:58:59;99283.60;;;3.00
68510;BMP180;55512;50.102;19.958;2022-11-28T07:01:29;99278.40;;;3.00
68510;BMP180;55512;50.102;19.958;2022-11-28T07:03:55;99278.00;;;3.00
68510;BMP180;55512;50.102;19.958;2022-11-28T07:06:24;99281.40;;;3.00
68510;BMP180;55512;50.102;19.958;2022-11-28T07:08:50;99284.60;;;3.02
68510;BMP180;55512;50.102;19.958;2022-11-28T07:11:18;99281.80;;;3.06
68510;BMP180;55512;50.102;19.958;2022-11-28T07:13:45;99279.60;;;3.08
68510;BMP180;55512;50.102;19.958;2022-11-28T07:16:25;99275.00;;;3.10
68510;BMP180;55512;50.102;19.958;2022-11-28T07:18:51;99272.00;;;3.10
68510;BMP180;55512;50.102;19.958;2022-11-28T07:21:18;99270.40;;;3.10
68510;BMP180;55512;50.102;19.958;2022-11-28T07:23:45;99273.80;;;3.10
68510;BMP180;55512;50.102;19.958;2022-11-28T07:26:13;99271.40;;;3.18
68510;BMP180;55512;50.102;19.958;2022-11-28T07:28:40;99273.20;;;3.20
68510;BMP180;55512;50.102;19.958;2022-11-28T07:31:35;99268.20;;;3.20
68510;BMP180;55512;50.102;19.958;2022-11-28T07:34:01;99272.60;;;3.20
68510;BMP180;55512;50.102;19.958;2022-11-28T07:36:30;99268.60;;;3.20
68510;BMP180;55512;50.102;19.958;2022-11-28T07:38:59;99268.40;;;3.20
68510;BMP180;55512;50.102;19.958;2022-11-28T07:41:25;99264.80;;;3.22
68510;BMP180;55512;50.102;19.958;2022-11-28T07:43:58;99266.80;;;3.30
68510;BMP180;55512;50.102;19.958;2022-11-28T07:46:25;99264.20;;;3.30
68510;BMP180;55512;50.102;19.958;2022-11-28T07:48:51;99268.40;;;3.30
68510;BMP180;55512;50.102;19.958;2022-11-28T07:51:24;99267.20;;;3.30
68510;BMP180;55512;50.102;19.958;2022-11-28T07:53:50;99265.00;;;3.38
68510;BMP180;55512;50.102;19.958;2022-11-28T07:56:20;99265.40;;;3.40
68510;BMP180;55512;50.102;19.958;2022-11-28T07:58:47;99267.80;;;3.40
68510;BMP180;55512;50.102;19.958;2022-11-28T08:01:26;99262.00;;;3.40
68510;BMP180;55512;50.102;19.958;2022-11-28T08:03:53;99263.20;;;3.42
68510;BMP180;55512;50.102;19.958;2022-11-28T08:06:23;99261.60;;;3.46
68510;BMP180;55512;50.102;19.958;2022-11-28T08:08:52;99264.00;;;3.50
68510;BMP180;55512;50.102;19.958;2022-11-28T08:11:21;99267.80;;;3.50
68510;BMP180;55512;50.102;19.958;2022-11-28T08:13:48;99260.00;;;3.50
68510;BMP180;55512;50.102;19.958;2022-11-28T08:16:20;99260.80;;;3.60
68510;BMP180;55512;50.102;19.958;2022-11-28T08:18:47;99259.20;;;3.60
68510;BMP180;55512;50.102;19.958;2022-11-28T08:21:20;99260.40;;;3.60
68510;BMP180;55512;50.102;19.958;2022-11-28T08:23:48;99261.00;;;3.66
68510;BMP180;55512;50.102;19.958;2022-11-28T08:26:18;99263.00;;;3.70
68510;BMP180;55512;50.102;19.958;2022-11-28T08:28:44;99264.60;;;3.70
68510;BMP180;55512;50.102;19.958;2022-11-28T08:31:21;99263.00;;;3.70
68510;BMP180;55512;50.102;19.958;2022-11-28T08:33:49;99264.60;;;3.76
68510;BMP180;55512;50.102;19.958;2022-11-28T08:36:16;99264.60;;;3.80
68510;BMP180;55512;50.102;19.958;2022-11-28T08:38:44;99268.20;;;3.80
68510;BMP180;55512;50.102;19.958;2022-11-28T08:41:14;99262.20;;;3.80
68510;BMP180;55512;50.102;19.958;2022-11-28T08:43:40;99263.60;;;3.88
68510;BMP180;55512;50.102;19.958;2022-11-28T08:46:13;99257.20;;;3.90
68510;BMP180;55512;50.102;19.958;2022-11-28T08:48:40;99257.60;;;3.90
68510;BMP180;55512;50.102;19.958;2022-11-28T08:51:07;99256.00;;;3.92
68510;BMP180;55512;50.102;19.958;2022-11-28T08:53:34;99253.40;;;4.00
68510;BMP180;55512;50.102;19.958;2022-11-28T08:56:00;99252.40;;;4.00
68510;BMP180;55512;50.102;19.958;2022-11-28T08:58:25;99252.60;;;4.10
68510;BMP180;55512;50.102;19.958;2022-11-28T09:00:51;99256.20;;;4.10
68510;BMP180;55512;50.102;19.958;2022-11-28T09:03:18;99253.40;;;4.16
68510;BMP180;55512;50.102;19.958;2022-11-28T09:05:45;99248.00;;;4.20
68510;BMP180;55512;50.102;19.958;2022-11-28T09:08:13;99241.80;;;4.22
68510;BMP180;55512;50.102;19.958;2022-11-28T09:10:41;99241.40;;;4.30
68510;BMP180;55512;50.102;19.958;2022-11-28T09:13:07;99235.40;;;4.32
68510;BMP180;55512;50.102;19.958;2022-11-28T09:15:37;99236.80;;;4.40
68510;BMP180;55512;50.102;19.958;2022-11-28T09:18:03;99234.20;;;4.42
68510;BMP180;55512;50.102;19.958;2022-11-28T09:20:28;99227.80;;;4.50
68510;BMP180;55512;50.102;19.958;2022-11-28T09:22:54;99231.00;;;4.50
68510;BMP180;55512;50.102;19.958;2022-11-28T09:25:19;99226.40;;;4.60
68510;BMP180;55512;50.102;19.958;2022-11-28T09:27:45;99223.00;;;4.60
68510;BMP180;55512;50.102;19.958;2022-11-28T09:30:11;99221.60;;;4.68
68510;BMP180;55512;50.102;19.958;2022-11-28T09:32:37;99221.20;;;4.70
68510;BMP180;55512;50.102;19.958;2022-11-28T09:35:03;99217.60;;;4.80
68510;BMP180;55512;50.102;19.958;2022-11-28T09:37:29;99214.60;;;4.80
68510;BMP180;55512;50.102;19.958;2022-11-28T09:39:55;99215.00;;;4.90
68510;BMP180;55512;50.102;19.958;2022-11-28T09:42:39;99214.00;;;4.90
68510;BMP180;55512;50.102;19.958;2022-11-28T09:45:16;99203.80;;;4.90
68510;BMP180;55512;50.102;19.958;2022-11-28T09:47:48;99205.40;;;4.90
68510;BMP180;55512;50.102;19.958;2022-11-28T09:50:37;99207.80;;;5.00
68510;BMP180;55512;50.102;19.958;2022-11-28T09:53:35;99203.40;;;5.00
68510;BMP180;55512;50.102;19.958;2022-11-28T09:56:15;99201.80;;;5.00
68510;BMP180;55512;50.102;19.958;2022-11-28T09:58:58;99201.20;;;5.10
68510;BMP180;55512;50.102;19.958;2022-11-28T10:01:51;99198.40;;;5.10
68510;BMP180;55512;50.102;19.958;2022-11-28T10:07:53;99189.80;;;5.28
68510;BMP180;55512;50.102;19.958;2022-11-28T10:16:56;99179.40;;;5.50
68510;BMP180;55512;50.102;19.958;2022-11-28T10:19:47;99178.00;;;5.60
68510;BMP180;55512;50.102;19.958;2022-11-28T10:22:31;99182.80;;;5.60
68510;BMP180;55512;50.102;19.958;2022-11-28T10:25:09;99182.80;;;5.70
68510;BMP180;55512;50.102;19.958;2022-11-28T10:27:35;99179.40;;;5.78
68510;BMP180;55512;50.102;19.958;2022-11-28T10:30:17;99177.20;;;5.80
68510;BMP180;55512;50.102;19.958;2022-11-28T10:32:55;99174.60;;;5.82
68510;BMP180;55512;50.102;19.958;2022-11-28T10:35:27;99174.20;;;5.90
68510;BMP180;55512;50.102;19.958;2022-11-28T10:37:55;99173.20;;;5.94
68510;BMP180;55512;50.102;19.958;2022-11-28T10:43:33;99173.40;;;6.00
68510;BMP180;55512;50.102;19.958;2022-11-28T10:52:15;99168.00;;;6.10
68510;BMP180;55512;50.102;19.958;2022-11-28T10:57:20;99152.80;;;6.20
68510;BMP180;55512;50.102;19.958;2022-11-28T11:00:16;99152.40;;;6.20
68510;BMP180;55512;50.102;19.958;2022-11-28T11:02:51;99148.80;;;6.20
68510;BMP180;55512;50.102;19.958;2022-11-28T11:05:25;99151.60;;;6.20
68510;BMP180;55512;50.102;19.958;2022-11-28T11:08:10;99148.20;;;6.10
68510;BMP180;55512;50.102;19.958;2022-11-28T11:10:47;99147.20;;;6.00
68510;BMP180;55512;50.102;19.958;2022-11-28T11:13:22;99141.60;;;6.00
68510;BMP180;55512;50.102;19.958;2022-11-28T11:16:16;99138.20;;;6.00
68510;BMP180;55512;50.102;19.958;2022-11-28T11:21:16;99136.60;;;6.00
68510;BMP180;55512;50.102;19.958;2022-11-28T11:23:44;99131.40;;;6.00
68510;BMP180;55512;50.102;19.958;2022-11-28T11:26:34;99130.80;;;6.00
68510;BMP180;55512;50.102;19.958;2022-11-28T11:29:02;99131.20;;;6.00
68510;BMP180;55512;50.102;19.958;2022-11-28T11:31:43;99128.00;;;6.02
68510;BMP180;55512;50.102;19.958;2022-11-28T11:34:20;99129.80;;;6.00
68510;BMP180;55512;50.102;19.958;2022-11-28T11:36:47;99131.00;;;6.00
68510;BMP180;55512;50.102;19.958;2022-11-28T11:41:47;99134.20;;;6.10
68510;BMP180;55512;50.102;19.958;2022-11-28T11:46:57;99134.40;;;6.10
68510;BMP180;55512;50.102;19.958;2022-11-28T11:54:52;99134.80;;;6.22
68510;BMP180;55512;50.102;19.958;2022-11-28T11:57:21;99136.40;;;6.30
68510;BMP180;55512;50.102;19.958;2022-11-28T12:00:32;99139.80;;;6.30
68510;BMP180;55512;50.102;19.958;2022-11-28T12:03:09;99132.20;;;6.30
68510;BMP180;55512;50.102;19.958;2022-11-28T12:05:57;99125.20;;;6.40
68510;BMP180;55512;50.102;19.958;2022-11-28T12:08:49;99125.40;;;6.40
68510;BMP180;55512;50.102;19.958;2022-11-28T12:11:29;99122.00;;;6.40
68510;BMP180;55512;50.102;19.958;2022-11-28T12:14:03;99124.20;;;6.50
68510;BMP180;55512;50.102;19.958;2022-11-28T12:16:52;99121.60;;;6.58
68510;BMP180;55512;50.102;19.958;2022-11-28T12:23:09;99121.80;;;6.60
68510;BMP180;55512;50.102;19.958;2022-11-28T12:26:20;99117.00;;;6.68
68510;BMP180;55512;50.102;19.958;2022-11-28T12:35:38;99110.40;;;6.90
68510;BMP180;55512;50.102;19.958;2022-11-28T12:44:44;99115.20;;;7.10
68510;BMP180;55512;50.102;19.958;2022-11-28T12:50:25;99109.00;;;7.28
68510;BMP180;55512;50.102;19.958;2022-11-28T12:56:24;99112.40;;;7.38
68510;BMP180;55512;50.102;19.958;2022-11-28T13:10:38;99104.80;;;7.70
68510;BMP180;55512;50.102;19.958;2022-11-28T13:16:44;99101.40;;;7.70
68510;BMP180;55512;50.102;19.958;2022-11-28T13:19:43;99099.20;;;7.78
68510;BMP180;55512;50.102;19.958;2022-11-28T13:22:23;99097.20;;;7.80
68510;BMP180;55512;50.102;19.958;2022-11-28T13:25:20;99098.80;;;7.90
68510;BMP180;55512;50.102;19.958;2022-11-28T13:29:01;99107.20;;;7.90
68510;BMP180;55512;50.102;19.958;2022-11-28T13:33:53;99108.60;;;8.00
68510;BMP180;55512;50.102;19.958;2022-11-28T13:36:47;99109.20;;;8.10
68510;BMP180;55512;50.102;19.958;2022-11-28T13:42:42;99101.80;;;8.20
68510;BMP180;55512;50.102;19.958;2022-11-28T13:45:37;99093.80;;;8.20
68510;BMP180;55512;50.102;19.958;2022-11-28T13:53:39;99094.20;;;8.10
68510;BMP180;55512;50.102;19.958;2022-11-28T13:56:21;99091.40;;;8.02
68510;BMP180;55512;50.102;19.958;2022-11-28T13:58:58;99091.20;;;8.00
68510;BMP180;55512;50.102;19.958;2022-11-28T14:01:41;99092.60;;;7.90
68510;BMP180;55512;50.102;19.958;2022-11-28T14:04:16;99093.60;;;7.80
68510;BMP180;55512;50.102;19.958;2022-11-28T14:06:45;99094.00;;;7.70
68510;BMP180;55512;50.102;19.958;2022-11-28T14:21:04;99090.60;;;7.40
68510;BMP180;55512;50.102;19.958;2022-11-28T14:26:35;99087.80;;;7.40
68510;BMP180;55512;50.102;19.958;2022-11-28T14:29:06;99086.60;;;7.30
68510;BMP180;55512;50.102;19.958;2022-11-28T14:31:36;99086.40;;;7.20
68510;BMP180;55512;50.102;19.958;2022-11-28T14:34:09;99084.40;;;7.10
68510;BMP180;55512;50.102;19.958;2022-11-28T14:39:55;99079.00;;;6.80
68510;BMP180;55512;50.102;19.958;2022-11-28T14:44:54;99074.20;;;6.58
68510;BMP180;55512;50.102;19.958;2022-11-28T14:52:42;99071.20;;;6.20
68510;BMP180;55512;50.102;19.958;2022-11-28T14:57:52;99067.40;;;5.90
68510;BMP180;55512;50.102;19.958;2022-11-28T15:00:27;99068.40;;;5.80
68510;BMP180;55512;50.102;19.958;2022-11-28T15:05:52;99072.20;;;5.50
68510;BMP180;55512;50.102;19.958;2022-11-28T15:14:41;99071.40;;;5.12
68510;BMP180;55512;50.102;19.958;2022-11-28T15:17:13;99072.20;;;5.02
68510;BMP180;55512;50.102;19.958;2022-11-28T15:19:48;99074.20;;;4.94
68510;BMP180;55512;50.102;19.958;2022-11-28T15:22:49;99073.00;;;4.88
68510;BMP180;55512;50.102;19.958;2022-11-28T15:25:28;99070.60;;;4.80
68510;BMP180;55512;50.102;19.958;2022-11-28T15:27:54;99072.60;;;4.70
68510;BMP180;55512;50.102;19.958;2022-11-28T15:30:24;99072.00;;;4.60
68510;BMP180;55512;50.102;19.958;2022-11-28T15:33:00;99072.60;;;4.50
68510;BMP180;55512;50.102;19.958;2022-11-28T15:35:27;99081.40;;;4.40
68510;BMP180;55512;50.102;19.958;2022-11-28T15:37:56;99069.60;;;4.30
68510;BMP180;55512;50.102;19.958;2022-11-28T15:40:34;99068.20;;;4.30
68510;BMP180;55512;50.102;19.958;2022-11-28T15:43:02;99072.40;;;4.20
68510;BMP180;55512;50.102;19.958;2022-11-28T15:45:32;99067.20;;;4.10
68510;BMP180;55512;50.102;19.958;2022-11-28T15:48:02;99063.00;;;4.00
68510;BMP180;55512;50.102;19.958;2022-11-28T15:50:32;99061.60;;;3.98
68510;BMP180;55512;50.102;19.958;2022-11-28T15:53:13;99059.20;;;3.90
68510;BMP180;55512;50.102;19.958;2022-11-28T15:55:39;99057.40;;;3.80
68510;BMP180;55512;50.102;19.958;2022-11-28T16:00:47;99059.20;;;3.70
68510;BMP180;55512;50.102;19.958;2022-11-28T16:03:22;99058.20;;;3.64
68510;BMP180;55512;50.102;19.958;2022-11-28T16:05:52;99059.40;;;3.60
68510;BMP180;55512;50.102;19.958;2022-11-28T16:08:25;99059.60;;;3.50
68510;BMP180;55512;50.102;19.958;2022-11-28T16:10:52;99053.40;;;3.48
68510;BMP180;55512;50.102;19.958;2022-11-28T16:13:20;99054.80;;;3.40
68510;BMP180;55512;50.102;19.958;2022-11-28T16:15:48;99055.60;;;3.40
68510;BMP180;55512;50.102;19.958;2022-11-28T16:18:15;99057.80;;;3.30
68510;BMP180;55512;50.102;19.958;2022-11-28T16:20:41;99054.80;;;3.30
68510;BMP180;55512;50.102;19.958;2022-11-28T16:23:24;99051.60;;;3.24
68510;BMP180;55512;50.102;19.958;2022-11-28T16:31:27;99057.20;;;3.10
68510;BMP180;55512;50.102;19.958;2022-11-28T16:33:53;99050.40;;;3.02
68510;BMP180;55512;50.102;19.958;2022-11-28T16:36:31;99056.40;;;3.00
68510;BMP180;55512;50.102;19.958;2022-11-28T16:39:14;99049.80;;;3.00
68510;BMP180;55512;50.102;19.958;2022-11-28T16:44:31;99053.40;;;2.90
68510;BMP180;55512;50.102;19.958;2022-11-28T16:46:58;99056.20;;;2.90
68510;BMP180;55512;50.102;19.958;2022-11-28T16:49:40;99057.60;;;2.80
68510;BMP180;55512;50.102;19.958;2022-11-28T16:54:59;99054.80;;;2.72
68510;BMP180;55512;50.102;19.958;2022-11-28T16:57:44;99061.80;;;2.70
68510;BMP180;55512;50.102;19.958;2022-11-28T17:00:10;99064.40;;;2.68
68510;BMP180;55512;50.102;19.958;2022-11-28T17:02:36;99061.60;;;2.60
68510;BMP180;55512;50.102;19.958;2022-11-28T17:05:02;99058.20;;;2.60
68510;BMP180;55512;50.102;19.958;2022-11-28T17:07:28;99055.00;;;2.60
68510;BMP180;55512;50.102;19.958;2022-11-28T17:09:54;99055.40;;;2.52
68510;BMP180;55512;50.102;19.958;2022-11-28T17:14:51;99059.20;;;2.50
68510;BMP180;55512;50.102;19.958;2022-11-28T17:17:19;99061.00;;;2.50
68510;BMP180;55512;50.102;19.958;2022-11-28T17:19:48;99059.40;;;2.40
68510;BMP180;55512;50.102;19.958;2022-11-28T17:22:19;99058.80;;;2.40
68510;BMP180;55512;50.102;19.958;2022-11-28T17:24:47;99064.40;;;2.32
68510;BMP180;55512;50.102;19.958;2022-11-28T17:27:13;99067.40;;;2.30
68510;BMP180;55512;50.102;19.958;2022-11-28T17:29:39;99065.60;;;2.30
68510;BMP180;55512;50.102;19.958;2022-11-28T17:32:10;99063.40;;;2.30
68510;BMP180;55512;50.102;19.958;2022-11-28T17:34:36;99061.60;;;2.20
68510;BMP180;55512;50.102;19.958;2022-11-28T17:37:02;99065.60;;;2.20